Huntimer, South Dakota
Current Conditions -  °F | °C
As of 4:30 AM on Tuesday 27 Jan 2015 (Local Time) from KMDS Reporting Station
Clear Clear  
Wind Chill: 28°   Ceiling: Unl
Heat Index: 28°   Visibility: 10mi
Dew Point: 28°   Wind: 0mph
Humidity: 100%   Direction: NA
Pressure: 30.02"   Gusts: NA
Location:  43.8049°N, 97.0095°W
Report Text: KMDS 271030Z AUTO 00000KT 10SM CLR M02/M02 A3002 RMK AO2
Loading
Personal Weather Stations






























Interactive Weather Map New forecast layout! Learn more

10-Day Weather Forecast

Advertisements
Track Severe Weather on mobile